KILM/ILM METAR and TAF weather

Enter ICAO airport designator
Station Type Date Time Source
KILM METAR 2021/05/11 22:53 UTC NOAA

KILM 112253Z AUTO VRB05KT 10SM OVC030 21/14 A3006 RMK AO2 SLP179 T02060144


Station Type Date Time Source
KILM Decoded METAR 2021/05/11 22:53 UTC NOAA

WILMINGTON INT'L AIRPORT, NC, United States (KILM) 34-16N 077-54W 9M
May 11, 2021 - 06:53 PM EDT / 2021.05.11 2253 UTC
Wind: Variable at 6 MPH (5 KT):0
Visibility: 10 mile(s):0
Sky conditions: overcast
Temperature: 69.1 F (20.6 C)
Dew Point: 57.9 F (14.4 C)
Relative Humidity: 67%
Pressure (altimeter): 30.06 in. Hg (1017 hPa)
ob: KILM 112253Z AUTO VRB05KT 10SM OVC030 21/14 A3006 RMK AO2 SLP179 T02060144
cycle: 23

Station Type Date Time Source
KILM TAF 2021/05/11 18:21 UTC NOAA

TAF KILM 111720Z 1118/1218 06006KT P6SM BKN025
FM120100 07005KT P6SM BKN035
FM121100 03009KT 6SM RA BR OVC030
FM121400 03011KT 4SM RA BR OVC010
FM121700 02013KT 3SM RA BR OVC009

Example: see airport list